sensor_id;sensor_type;location;lat;lon;timestamp;P1;durP1;ratioP1;P2;durP2;ratioP2
13040;SDS011;6587;42.728;23.288;2023-05-07T00:00:28;18.87;;;13.33;;
13040;SDS011;6587;42.728;23.288;2023-05-07T00:02:55;15.97;;;12.43;;
13040;SDS011;6587;42.728;23.288;2023-05-07T00:05:21;14.97;;;11.63;;
13040;SDS011;6587;42.728;23.288;2023-05-07T00:07:48;14.43;;;11.17;;
13040;SDS011;6587;42.728;23.288;2023-05-07T00:10:15;19.83;;;12.60;;
13040;SDS011;6587;42.728;23.288;2023-05-07T00:12:43;21.00;;;12.87;;
13040;SDS011;6587;42.728;23.288;2023-05-07T00:15:10;16.57;;;12.30;;
13040;SDS011;6587;42.728;23.288;2023-05-07T00:17:37;18.00;;;12.90;;
13040;SDS011;6587;42.728;23.288;2023-05-07T00:20:04;19.47;;;13.40;;
13040;SDS011;6587;42.728;23.288;2023-05-07T00:22:31;20.17;;;14.50;;
13040;SDS011;6587;42.728;23.288;2023-05-07T00:24:57;20.50;;;14.43;;
13040;SDS011;6587;42.728;23.288;2023-05-07T00:27:24;21.37;;;15.23;;
13040;SDS011;6587;42.728;23.288;2023-05-07T00:29:52;25.83;;;15.60;;
13040;SDS011;6587;42.728;23.288;2023-05-07T00:32:19;19.93;;;14.03;;
13040;SDS011;6587;42.728;23.288;2023-05-07T00:34:45;21.97;;;14.40;;
13040;SDS011;6587;42.728;23.288;2023-05-07T00:37:12;19.70;;;14.57;;
13040;SDS011;6587;42.728;23.288;2023-05-07T00:39:39;21.47;;;15.43;;
13040;SDS011;6587;42.728;23.288;2023-05-07T00:42:05;23.10;;;15.90;;
13040;SDS011;6587;42.728;23.288;2023-05-07T00:44:33;20.60;;;16.47;;
13040;SDS011;6587;42.728;23.288;2023-05-07T00:47:01;19.90;;;15.73;;
13040;SDS011;6587;42.728;23.288;2023-05-07T00:49:32;22.47;;;15.70;;
13040;SDS011;6587;42.728;23.288;2023-05-07T00:52:00;23.27;;;15.87;;
13040;SDS011;6587;42.728;23.288;2023-05-07T00:54:27;21.10;;;14.00;;
13040;SDS011;6587;42.728;23.288;2023-05-07T00:56:54;22.13;;;14.83;;
13040;SDS011;6587;42.728;23.288;2023-05-07T00:59:21;21.77;;;15.17;;
13040;SDS011;6587;42.728;23.288;2023-05-07T01:01:47;21.73;;;15.43;;
13040;SDS011;6587;42.728;23.288;2023-05-07T01:04:16;24.17;;;14.73;;
13040;SDS011;6587;42.728;23.288;2023-05-07T01:06:42;23.00;;;16.73;;
13040;SDS011;6587;42.728;23.288;2023-05-07T01:09:10;27.90;;;17.03;;
13040;SDS011;6587;42.728;23.288;2023-05-07T01:11:37;23.37;;;15.23;;
13040;SDS011;6587;42.728;23.288;2023-05-07T01:14:04;22.90;;;15.10;;
13040;SDS011;6587;42.728;23.288;2023-05-07T01:16:31;22.50;;;15.07;;
13040;SDS011;6587;42.728;23.288;2023-05-07T01:18:58;20.37;;;15.00;;
13040;SDS011;6587;42.728;23.288;2023-05-07T01:21:26;25.33;;;15.77;;
13040;SDS011;6587;42.728;23.288;2023-05-07T01:23:57;26.07;;;17.03;;
13040;SDS011;6587;42.728;23.288;2023-05-07T01:26:24;27.50;;;18.13;;
13040;SDS011;6587;42.728;23.288;2023-05-07T01:28:51;26.60;;;17.77;;
13040;SDS011;6587;42.728;23.288;2023-05-07T01:31:18;23.93;;;16.90;;
13040;SDS011;6587;42.728;23.288;2023-05-07T01:33:45;26.60;;;17.67;;
13040;SDS011;6587;42.728;23.288;2023-05-07T01:36:12;26.60;;;17.87;;
13040;SDS011;6587;42.728;23.288;2023-05-07T01:38:39;27.87;;;17.23;;
13040;SDS011;6587;42.728;23.288;2023-05-07T01:41:08;25.07;;;16.77;;
13040;SDS011;6587;42.728;23.288;2023-05-07T01:43:35;23.30;;;16.10;;
13040;SDS011;6587;42.728;23.288;2023-05-07T01:46:02;27.50;;;15.70;;
13040;SDS011;6587;42.728;23.288;2023-05-07T01:48:29;26.47;;;16.00;;
13040;SDS011;6587;42.728;23.288;2023-05-07T01:50:56;22.23;;;14.93;;
13040;SDS011;6587;42.728;23.288;2023-05-07T01:53:22;22.23;;;15.57;;
13040;SDS011;6587;42.728;23.288;2023-05-07T01:55:49;25.07;;;16.07;;
13040;SDS011;6587;42.728;23.288;2023-05-07T01:58:17;22.83;;;16.70;;
13040;SDS011;6587;42.728;23.288;2023-05-07T02:00:44;25.57;;;16.13;;
13040;SDS011;6587;42.728;23.288;2023-05-07T02:03:11;21.80;;;15.33;;
13040;SDS011;6587;42.728;23.288;2023-05-07T02:05:48;22.60;;;14.50;;
13040;SDS011;6587;42.728;23.288;2023-05-07T02:08:40;33.57;;;20.47;;
13040;SDS011;6587;42.728;23.288;2023-05-07T02:11:08;30.93;;;18.73;;
13040;SDS011;6587;42.728;23.288;2023-05-07T02:13:36;47.57;;;25.63;;
13040;SDS011;6587;42.728;23.288;2023-05-07T02:16:03;45.13;;;23.00;;
13040;SDS011;6587;42.728;23.288;2023-05-07T02:18:30;35.43;;;20.40;;
13040;SDS011;6587;42.728;23.288;2023-05-07T02:20:57;30.23;;;16.77;;
13040;SDS011;6587;42.728;23.288;2023-05-07T02:23:24;32.23;;;17.73;;
13040;SDS011;6587;42.728;23.288;2023-05-07T02:25:51;31.03;;;17.93;;
13040;SDS011;6587;42.728;23.288;2023-05-07T02:28:18;32.40;;;17.50;;
13040;SDS011;6587;42.728;23.288;2023-05-07T02:30:56;28.43;;;16.17;;
13040;SDS011;6587;42.728;23.288;2023-05-07T02:33:24;25.30;;;16.70;;
13040;SDS011;6587;42.728;23.288;2023-05-07T02:35:50;21.50;;;14.70;;
13040;SDS011;6587;42.728;23.288;2023-05-07T02:38:17;22.83;;;14.63;;
13040;SDS011;6587;42.728;23.288;2023-05-07T02:40:44;20.87;;;13.90;;
13040;SDS011;6587;42.728;23.288;2023-05-07T02:43:11;21.90;;;14.73;;
13040;SDS011;6587;42.728;23.288;2023-05-07T02:45:41;16.87;;;12.87;;
13040;SDS011;6587;42.728;23.288;2023-05-07T02:48:10;18.03;;;12.43;;
13040;SDS011;6587;42.728;23.288;2023-05-07T02:50:36;21.27;;;13.50;;
13040;SDS011;6587;42.728;23.288;2023-05-07T02:53:03;19.90;;;13.10;;
13040;SDS011;6587;42.728;23.288;2023-05-07T02:55:30;21.87;;;13.70;;
13040;SDS011;6587;42.728;23.288;2023-05-07T02:57:56;17.73;;;11.70;;
13040;SDS011;6587;42.728;23.288;2023-05-07T03:00:23;20.57;;;12.30;;
13040;SDS011;6587;42.728;23.288;2023-05-07T03:03:00;17.67;;;11.83;;
13040;SDS011;6587;42.728;23.288;2023-05-07T03:05:28;15.60;;;11.13;;
13040;SDS011;6587;42.728;23.288;2023-05-07T03:07:54;15.00;;;10.83;;
13040;SDS011;6587;42.728;23.288;2023-05-07T03:10:21;20.17;;;11.73;;
13040;SDS011;6587;42.728;23.288;2023-05-07T03:12:47;17.57;;;11.40;;
13040;SDS011;6587;42.728;23.288;2023-05-07T03:15:16;15.03;;;10.13;;
13040;SDS011;6587;42.728;23.288;2023-05-07T03:17:42;17.47;;;11.07;;
13040;SDS011;6587;42.728;23.288;2023-05-07T03:20:09;15.63;;;10.27;;
13040;SDS011;6587;42.728;23.288;2023-05-07T03:22:38;14.13;;;10.47;;
13040;SDS011;6587;42.728;23.288;2023-05-07T03:25:05;16.63;;;10.43;;
13040;SDS011;6587;42.728;23.288;2023-05-07T03:27:32;15.57;;;10.63;;
13040;SDS011;6587;42.728;23.288;2023-05-07T03:29:58;15.43;;;11.20;;
13040;SDS011;6587;42.728;23.288;2023-05-07T03:32:25;17.17;;;11.53;;
13040;SDS011;6587;42.728;23.288;2023-05-07T03:34:52;14.53;;;10.83;;
13040;SDS011;6587;42.728;23.288;2023-05-07T03:37:18;17.80;;;11.27;;
13040;SDS011;6587;42.728;23.288;2023-05-07T03:39:48;15.33;;;11.50;;
13040;SDS011;6587;42.728;23.288;2023-05-07T03:42:15;16.80;;;10.97;;
13040;SDS011;6587;42.728;23.288;2023-05-07T03:44:42;16.27;;;11.23;;
13040;SDS011;6587;42.728;23.288;2023-05-07T03:47:08;18.73;;;11.50;;
13040;SDS011;6587;42.728;23.288;2023-05-07T03:49:35;16.47;;;11.70;;
13040;SDS011;6587;42.728;23.288;2023-05-07T03:52:02;14.90;;;10.37;;
13040;SDS011;6587;42.728;23.288;2023-05-07T03:54:30;17.23;;;10.97;;
13040;SDS011;6587;42.728;23.288;2023-05-07T03:56:58;15.07;;;11.03;;
13040;SDS011;6587;42.728;23.288;2023-05-07T03:59:25;17.23;;;10.97;;
13040;SDS011;6587;42.728;23.288;2023-05-07T04:01:51;15.70;;;11.70;;
13040;SDS011;6587;42.728;23.288;2023-05-07T04:04:21;17.43;;;10.90;;
13040;SDS011;6587;42.728;23.288;2023-05-07T04:06:48;14.30;;;10.97;;
13040;SDS011;6587;42.728;23.288;2023-05-07T04:09:14;15.33;;;11.07;;
13040;SDS011;6587;42.728;23.288;2023-05-07T04:11:42;13.63;;;10.23;;
13040;SDS011;6587;42.728;23.288;2023-05-07T04:14:11;18.43;;;11.50;;
13040;SDS011;6587;42.728;23.288;2023-05-07T04:16:38;14.17;;;10.87;;
13040;SDS011;6587;42.728;23.288;2023-05-07T04:19:06;16.30;;;10.67;;
13040;SDS011;6587;42.728;23.288;2023-05-07T04:21:34;20.87;;;12.60;;
13040;SDS011;6587;42.728;23.288;2023-05-07T04:24:00;19.77;;;12.77;;
13040;SDS011;6587;42.728;23.288;2023-05-07T04:26:27;21.43;;;11.90;;
13040;SDS011;6587;42.728;23.288;2023-05-07T04:28:55;19.17;;;11.30;;
13040;SDS011;6587;42.728;23.288;2023-05-07T04:31:25;23.57;;;12.97;;
13040;SDS011;6587;42.728;23.288;2023-05-07T04:33:53;26.27;;;14.80;;
13040;SDS011;6587;42.728;23.288;2023-05-07T04:36:20;18.83;;;13.53;;
13040;SDS011;6587;42.728;23.288;2023-05-07T04:38:52;16.40;;;12.17;;
13040;SDS011;6587;42.728;23.288;2023-05-07T04:41:19;18.70;;;12.20;;
13040;SDS011;6587;42.728;23.288;2023-05-07T04:43:46;16.07;;;11.20;;
13040;SDS011;6587;42.728;23.288;2023-05-07T04:46:14;14.57;;;10.57;;
13040;SDS011;6587;42.728;23.288;2023-05-07T04:48:43;12.97;;;9.67;;
13040;SDS011;6587;42.728;23.288;2023-05-07T04:51:10;16.47;;;11.03;;
13040;SDS011;6587;42.728;23.288;2023-05-07T04:53:37;18.63;;;11.30;;
13040;SDS011;6587;42.728;23.288;2023-05-07T04:56:04;13.10;;;10.10;;
13040;SDS011;6587;42.728;23.288;2023-05-07T04:58:37;15.90;;;10.97;;
13040;SDS011;6587;42.728;23.288;2023-05-07T05:01:04;16.10;;;10.57;;
13040;SDS011;6587;42.728;23.288;2023-05-07T05:03:31;13.97;;;10.23;;
13040;SDS011;6587;42.728;23.288;2023-05-07T05:05:59;14.33;;;10.33;;
13040;SDS011;6587;42.728;23.288;2023-05-07T05:08:30;14.97;;;10.93;;
13040;SDS011;6587;42.728;23.288;2023-05-07T05:10:57;14.07;;;11.07;;
13040;SDS011;6587;42.728;23.288;2023-05-07T05:13:24;15.20;;;11.70;;
13040;SDS011;6587;42.728;23.288;2023-05-07T05:15:51;19.07;;;11.63;;
13040;SDS011;6587;42.728;23.288;2023-05-07T05:18:18;16.50;;;11.77;;
13040;SDS011;6587;42.728;23.288;2023-05-07T05:20:46;16.03;;;12.37;;
13040;SDS011;6587;42.728;23.288;2023-05-07T05:23:14;15.53;;;11.13;;
13040;SDS011;6587;42.728;23.288;2023-05-07T05:25:41;17.50;;;12.37;;
13040;SDS011;6587;42.728;23.288;2023-05-07T05:28:10;15.27;;;11.53;;
13040;SDS011;6587;42.728;23.288;2023-05-07T05:30:36;16.07;;;12.67;;
13040;SDS011;6587;42.728;23.288;2023-05-07T05:33:03;18.83;;;12.73;;
13040;SDS011;6587;42.728;23.288;2023-05-07T05:35:30;17.47;;;13.03;;
13040;SDS011;6587;42.728;23.288;2023-05-07T05:37:58;17.57;;;12.47;;
13040;SDS011;6587;42.728;23.288;2023-05-07T05:40:26;20.50;;;13.27;;
13040;SDS011;6587;42.728;23.288;2023-05-07T05:42:53;20.77;;;12.63;;
13040;SDS011;6587;42.728;23.288;2023-05-07T05:45:19;18.00;;;12.83;;
13040;SDS011;6587;42.728;23.288;2023-05-07T05:47:46;20.10;;;13.90;;
13040;SDS011;6587;42.728;23.288;2023-05-07T05:50:13;20.07;;;13.97;;
13040;SDS011;6587;42.728;23.288;2023-05-07T05:52:40;16.83;;;12.57;;
13040;SDS011;6587;42.728;23.288;2023-05-07T05:55:08;18.77;;;12.70;;
13040;SDS011;6587;42.728;23.288;2023-05-07T05:57:37;20.07;;;13.83;;
13040;SDS011;6587;42.728;23.288;2023-05-07T06:00:05;17.80;;;13.27;;
13040;SDS011;6587;42.728;23.288;2023-05-07T06:02:43;22.73;;;13.37;;
13040;SDS011;6587;42.728;23.288;2023-05-07T06:05:13;19.00;;;13.97;;
13040;SDS011;6587;42.728;23.288;2023-05-07T06:07:41;20.23;;;14.00;;
13040;SDS011;6587;42.728;23.288;2023-05-07T06:10:08;19.63;;;13.47;;
13040;SDS011;6587;42.728;23.288;2023-05-07T06:12:34;18.60;;;13.10;;
13040;SDS011;6587;42.728;23.288;2023-05-07T06:15:03;18.27;;;13.23;;
13040;SDS011;6587;42.728;23.288;2023-05-07T06:17:29;18.33;;;14.07;;
13040;SDS011;6587;42.728;23.288;2023-05-07T06:19:56;18.00;;;13.50;;
13040;SDS011;6587;42.728;23.288;2023-05-07T06:22:23;20.40;;;13.50;;
13040;SDS011;6587;42.728;23.288;2023-05-07T06:24:50;17.07;;;13.17;;
13040;SDS011;6587;42.728;23.288;2023-05-07T06:27:17;18.97;;;13.63;;
13040;SDS011;6587;42.728;23.288;2023-05-07T06:29:44;18.10;;;13.20;;
13040;SDS011;6587;42.728;23.288;2023-05-07T06:32:15;17.37;;;13.30;;
13040;SDS011;6587;42.728;23.288;2023-05-07T06:34:44;17.70;;;13.17;;
13040;SDS011;6587;42.728;23.288;2023-05-07T06:37:11;21.53;;;14.07;;
13040;SDS011;6587;42.728;23.288;2023-05-07T06:39:58;19.50;;;13.57;;
13040;SDS011;6587;42.728;23.288;2023-05-07T06:42:24;20.70;;;13.57;;
13040;SDS011;6587;42.728;23.288;2023-05-07T06:44:57;18.80;;;13.70;;
13040;SDS011;6587;42.728;23.288;2023-05-07T06:47:25;17.90;;;13.47;;
13040;SDS011;6587;42.728;23.288;2023-05-07T06:49:54;19.73;;;14.10;;
13040;SDS011;6587;42.728;23.288;2023-05-07T06:52:24;21.27;;;13.37;;
13040;SDS011;6587;42.728;23.288;2023-05-07T06:54:51;19.93;;;13.10;;
13040;SDS011;6587;42.728;23.288;2023-05-07T06:57:21;16.83;;;12.30;;
13040;SDS011;6587;42.728;23.288;2023-05-07T06:59:48;21.10;;;12.90;;
13040;SDS011;6587;42.728;23.288;2023-05-07T07:02:15;19.27;;;13.03;;
13040;SDS011;6587;42.728;23.288;2023-05-07T07:04:43;19.20;;;13.23;;
13040;SDS011;6587;42.728;23.288;2023-05-07T07:07:10;20.13;;;13.37;;
13040;SDS011;6587;42.728;23.288;2023-05-07T07:09:38;18.77;;;12.37;;
13040;SDS011;6587;42.728;23.288;2023-05-07T07:12:06;18.27;;;13.33;;
13040;SDS011;6587;42.728;23.288;2023-05-07T07:14:35;16.27;;;12.33;;
13040;SDS011;6587;42.728;23.288;2023-05-07T07:17:02;20.70;;;12.13;;
13040;SDS011;6587;42.728;23.288;2023-05-07T07:19:31;18.47;;;12.20;;
13040;SDS011;6587;42.728;23.288;2023-05-07T07:22:00;19.07;;;13.10;;
13040;SDS011;6587;42.728;23.288;2023-05-07T07:24:27;17.47;;;12.73;;
13040;SDS011;6587;42.728;23.288;2023-05-07T07:26:57;20.87;;;12.53;;
13040;SDS011;6587;42.728;23.288;2023-05-07T07:29:25;18.80;;;12.03;;
13040;SDS011;6587;42.728;23.288;2023-05-07T07:31:52;18.27;;;12.67;;
13040;SDS011;6587;42.728;23.288;2023-05-07T07:34:20;18.83;;;12.53;;
13040;SDS011;6587;42.728;23.288;2023-05-07T07:36:47;15.40;;;11.57;;
13040;SDS011;6587;42.728;23.288;2023-05-07T07:39:18;16.27;;;12.10;;
13040;SDS011;6587;42.728;23.288;2023-05-07T07:41:47;17.97;;;12.17;;
13040;SDS011;6587;42.728;23.288;2023-05-07T07:44:15;18.70;;;13.00;;
13040;SDS011;6587;42.728;23.288;2023-05-07T07:46:47;16.13;;;11.27;;
13040;SDS011;6587;42.728;23.288;2023-05-07T07:49:14;19.97;;;11.57;;
13040;SDS011;6587;42.728;23.288;2023-05-07T07:51:41;17.30;;;11.27;;
13040;SDS011;6587;42.728;23.288;2023-05-07T07:54:09;15.60;;;10.03;;
13040;SDS011;6587;42.728;23.288;2023-05-07T07:56:37;15.70;;;11.10;;
13040;SDS011;6587;42.728;23.288;2023-05-07T07:59:05;16.80;;;11.23;;
13040;SDS011;6587;42.728;23.288;2023-05-07T08:01:34;14.10;;;10.27;;
13040;SDS011;6587;42.728;23.288;2023-05-07T08:04:01;13.47;;;10.50;;
13040;SDS011;6587;42.728;23.288;2023-05-07T08:06:30;13.10;;;10.10;;
13040;SDS011;6587;42.728;23.288;2023-05-07T08:08:57;15.80;;;10.37;;
13040;SDS011;6587;42.728;23.288;2023-05-07T08:11:23;13.30;;;9.97;;
13040;SDS011;6587;42.728;23.288;2023-05-07T08:13:55;11.77;;;8.63;;
13040;SDS011;6587;42.728;23.288;2023-05-07T08:16:23;13.70;;;8.87;;
13040;SDS011;6587;42.728;23.288;2023-05-07T08:18:51;12.70;;;9.40;;
13040;SDS011;6587;42.728;23.288;2023-05-07T08:21:18;11.37;;;8.20;;
13040;SDS011;6587;42.728;23.288;2023-05-07T08:23:45;11.80;;;8.93;;
13040;SDS011;6587;42.728;23.288;2023-05-07T08:26:12;15.63;;;9.73;;
13040;SDS011;6587;42.728;23.288;2023-05-07T08:28:38;13.07;;;8.93;;
13040;SDS011;6587;42.728;23.288;2023-05-07T08:31:07;14.63;;;9.70;;
13040;SDS011;6587;42.728;23.288;2023-05-07T08:33:37;11.27;;;8.53;;
13040;SDS011;6587;42.728;23.288;2023-05-07T08:36:04;10.00;;;8.20;;
13040;SDS011;6587;42.728;23.288;2023-05-07T08:38:31;12.17;;;8.70;;
13040;SDS011;6587;42.728;23.288;2023-05-07T08:40:58;11.17;;;7.83;;
13040;SDS011;6587;42.728;23.288;2023-05-07T08:43:26;11.33;;;8.47;;
13040;SDS011;6587;42.728;23.288;2023-05-07T08:45:53;11.00;;;7.93;;
13040;SDS011;6587;42.728;23.288;2023-05-07T08:48:24;10.93;;;8.10;;
13040;SDS011;6587;42.728;23.288;2023-05-07T08:50:58;7.87;;;6.53;;
13040;SDS011;6587;42.728;23.288;2023-05-07T08:53:25;9.43;;;6.10;;
13040;SDS011;6587;42.728;23.288;2023-05-07T08:55:52;7.90;;;6.20;;
13040;SDS011;6587;42.728;23.288;2023-05-07T08:58:19;7.63;;;5.80;;
13040;SDS011;6587;42.728;23.288;2023-05-07T09:00:45;7.90;;;5.87;;
13040;SDS011;6587;42.728;23.288;2023-05-07T09:03:13;8.13;;;5.70;;
13040;SDS011;6587;42.728;23.288;2023-05-07T09:05:45;10.57;;;5.60;;
13040;SDS011;6587;42.728;23.288;2023-05-07T09:08:14;6.27;;;4.80;;
13040;SDS011;6587;42.728;23.288;2023-05-07T09:10:41;6.10;;;5.13;;
13040;SDS011;6587;42.728;23.288;2023-05-07T09:13:08;7.47;;;5.20;;
13040;SDS011;6587;42.728;23.288;2023-05-07T09:15:38;8.60;;;5.60;;
13040;SDS011;6587;42.728;23.288;2023-05-07T09:18:05;8.50;;;6.33;;
13040;SDS011;6587;42.728;23.288;2023-05-07T09:20:33;9.88;;;6.13;;
13040;SDS011;6587;42.728;23.288;2023-05-07T09:23:02;8.67;;;6.27;;
13040;SDS011;6587;42.728;23.288;2023-05-07T09:25:29;7.53;;;5.70;;
13040;SDS011;6587;42.728;23.288;2023-05-07T09:27:58;6.32;;;5.72;;
13040;SDS011;6587;42.728;23.288;2023-05-07T09:30:27;8.43;;;5.80;;
13040;SDS011;6587;42.728;23.288;2023-05-07T09:32:54;8.03;;;5.33;;
13040;SDS011;6587;42.728;23.288;2023-05-07T09:35:21;5.00;;;4.53;;
13040;SDS011;6587;42.728;23.288;2023-05-07T09:37:55;5.30;;;4.70;;
13040;SDS011;6587;42.728;23.288;2023-05-07T09:40:25;5.60;;;4.20;;
13040;SDS011;6587;42.728;23.288;2023-05-07T09:42:53;6.73;;;4.63;;
13040;SDS011;6587;42.728;23.288;2023-05-07T09:45:21;7.70;;;5.03;;
13040;SDS011;6587;42.728;23.288;2023-05-07T09:47:48;9.33;;;5.00;;
13040;SDS011;6587;42.728;23.288;2023-05-07T09:50:15;5.18;;;4.68;;
13040;SDS011;6587;42.728;23.288;2023-05-07T09:52:42;6.78;;;4.47;;
13040;SDS011;6587;42.728;23.288;2023-05-07T09:55:10;7.78;;;4.85;;
13040;SDS011;6587;42.728;23.288;2023-05-07T09:57:39;4.90;;;4.43;;
13040;SDS011;6587;42.728;23.288;2023-05-07T10:00:07;5.32;;;4.15;;
13040;SDS011;6587;42.728;23.288;2023-05-07T10:02:55;5.43;;;4.72;;
13040;SDS011;6587;42.728;23.288;2023-05-07T10:05:30;7.40;;;4.63;;
13040;SDS011;6587;42.728;23.288;2023-05-07T10:07:58;4.40;;;3.90;;
13040;SDS011;6587;42.728;23.288;2023-05-07T10:10:26;6.82;;;4.38;;
13040;SDS011;6587;42.728;23.288;2023-05-07T10:12:54;8.18;;;4.25;;
13040;SDS011;6587;42.728;23.288;2023-05-07T10:15:28;4.80;;;4.00;;
13040;SDS011;6587;42.728;23.288;2023-05-07T10:17:56;4.35;;;3.63;;
13040;SDS011;6587;42.728;23.288;2023-05-07T10:20:24;4.28;;;3.65;;
13040;SDS011;6587;42.728;23.288;2023-05-07T10:22:53;6.10;;;3.88;;
13040;SDS011;6587;42.728;23.288;2023-05-07T10:25:28;4.13;;;3.72;;
13040;SDS011;6587;42.728;23.288;2023-05-07T10:27:59;4.00;;;3.17;;
13040;SDS011;6587;42.728;23.288;2023-05-07T10:30:29;3.70;;;3.00;;
13040;SDS011;6587;42.728;23.288;2023-05-07T10:33:01;3.90;;;3.17;;
13040;SDS011;6587;42.728;23.288;2023-05-07T10:35:32;3.50;;;3.20;;
13040;SDS011;6587;42.728;23.288;2023-05-07T10:38:02;4.70;;;3.60;;
13040;SDS011;6587;42.728;23.288;2023-05-07T10:40:31;5.93;;;4.35;;
13040;SDS011;6587;42.728;23.288;2023-05-07T10:43:01;6.80;;;4.43;;
13040;SDS011;6587;42.728;23.288;2023-05-07T10:45:35;4.95;;;4.00;;
13040;SDS011;6587;42.728;23.288;2023-05-07T10:48:06;3.83;;;3.13;;
13040;SDS011;6587;42.728;23.288;2023-05-07T10:50:34;6.38;;;3.83;;
13040;SDS011;6587;42.728;23.288;2023-05-07T10:53:21;5.70;;;3.88;;
13040;SDS011;6587;42.728;23.288;2023-05-07T10:56:25;4.10;;;3.75;;
13040;SDS011;6587;42.728;23.288;2023-05-07T10:59:32;4.07;;;3.70;;
13040;SDS011;6587;42.728;23.288;2023-05-07T11:02:12;3.95;;;3.40;;
13040;SDS011;6587;42.728;23.288;2023-05-07T11:07:33;4.32;;;3.72;;
13040;SDS011;6587;42.728;23.288;2023-05-07T11:10:05;5.40;;;4.38;;
13040;SDS011;6587;42.728;23.288;2023-05-07T11:12:47;4.13;;;3.72;;
13040;SDS011;6587;42.728;23.288;2023-05-07T11:18:12;5.32;;;3.78;;
13040;SDS011;6587;42.728;23.288;2023-05-07T11:20:46;4.55;;;3.92;;
13040;SDS011;6587;42.728;23.288;2023-05-07T11:23:56;5.55;;;3.97;;
13040;SDS011;6587;42.728;23.288;2023-05-07T11:26:30;3.20;;;2.90;;
13040;SDS011;6587;42.728;23.288;2023-05-07T11:28:57;6.75;;;3.50;;
13040;SDS011;6587;42.728;23.288;2023-05-07T11:31:26;4.18;;;2.90;;
13040;SDS011;6587;42.728;23.288;2023-05-07T11:33:58;4.65;;;3.22;;
13040;SDS011;6587;42.728;23.288;2023-05-07T11:36:25;6.55;;;3.55;;
13040;SDS011;6587;42.728;23.288;2023-05-07T11:38:54;3.05;;;2.80;;
13040;SDS011;6587;42.728;23.288;2023-05-07T11:41:21;3.38;;;3.08;;
13040;SDS011;6587;42.728;23.288;2023-05-07T11:43:54;4.80;;;2.85;;
13040;SDS011;6587;42.728;23.288;2023-05-07T11:46:22;5.80;;;3.10;;
13040;SDS011;6587;42.728;23.288;2023-05-07T11:48:48;3.53;;;3.03;;
13040;SDS011;6587;42.728;23.288;2023-05-07T11:51:20;4.07;;;3.10;;
13040;SDS011;6587;42.728;23.288;2023-05-07T11:53:47;4.45;;;3.17;;
13040;SDS011;6587;42.728;23.288;2023-05-07T11:56:14;4.65;;;3.05;;
13040;SDS011;6587;42.728;23.288;2023-05-07T11:58:41;4.72;;;3.08;;
13040;SDS011;6587;42.728;23.288;2023-05-07T12:01:09;3.33;;;2.88;;
13040;SDS011;6587;42.728;23.288;2023-05-07T12:03:36;4.97;;;3.67;;
13040;SDS011;6587;42.728;23.288;2023-05-07T12:06:05;3.63;;;3.17;;
13040;SDS011;6587;42.728;23.288;2023-05-07T12:08:35;3.88;;;2.92;;
13040;SDS011;6587;42.728;23.288;2023-05-07T12:11:02;3.60;;;2.63;;
13040;SDS011;6587;42.728;23.288;2023-05-07T12:13:29;2.58;;;2.38;;
13040;SDS011;6587;42.728;23.288;2023-05-07T12:15:56;3.92;;;3.10;;
13040;SDS011;6587;42.728;23.288;2023-05-07T12:18:23;3.58;;;2.97;;
13040;SDS011;6587;42.728;23.288;2023-05-07T12:20:50;4.85;;;2.65;;
13040;SDS011;6587;42.728;23.288;2023-05-07T12:23:16;3.60;;;2.83;;
13040;SDS011;6587;42.728;23.288;2023-05-07T12:25:44;3.60;;;2.80;;
13040;SDS011;6587;42.728;23.288;2023-05-07T12:28:13;2.83;;;2.58;;
13040;SDS011;6587;42.728;23.288;2023-05-07T12:30:40;2.53;;;2.33;;
13040;SDS011;6587;42.728;23.288;2023-05-07T12:33:08;2.60;;;2.40;;
13040;SDS011;6587;42.728;23.288;2023-05-07T12:35:36;3.25;;;2.95;;
13040;SDS011;6587;42.728;23.288;2023-05-07T12:38:07;3.45;;;2.80;;
13040;SDS011;6587;42.728;23.288;2023-05-07T12:40:37;4.40;;;2.72;;
13040;SDS011;6587;42.728;23.288;2023-05-07T12:43:05;2.88;;;2.47;;
13040;SDS011;6587;42.728;23.288;2023-05-07T12:45:31;5.10;;;2.67;;
13040;SDS011;6587;42.728;23.288;2023-05-07T12:48:02;3.30;;;3.00;;
13040;SDS011;6587;42.728;23.288;2023-05-07T12:50:30;3.80;;;2.58;;
13040;SDS011;6587;42.728;23.288;2023-05-07T12:52:57;3.65;;;3.00;;
13040;SDS011;6587;42.728;23.288;2023-05-07T12:55:24;3.55;;;2.70;;
13040;SDS011;6587;42.728;23.288;2023-05-07T12:57:51;3.95;;;3.20;;
13040;SDS011;6587;42.728;23.288;2023-05-07T13:00:33;3.95;;;3.53;;
13040;SDS011;6587;42.728;23.288;2023-05-07T13:02:59;5.05;;;3.03;;
13040;SDS011;6587;42.728;23.288;2023-05-07T13:05:26;5.15;;;2.80;;
13040;SDS011;6587;42.728;23.288;2023-05-07T13:07:53;3.65;;;2.75;;
13040;SDS011;6587;42.728;23.288;2023-05-07T13:10:20;3.33;;;3.03;;
13040;SDS011;6587;42.728;23.288;2023-05-07T13:12:46;3.65;;;2.80;;
13040;SDS011;6587;42.728;23.288;2023-05-07T13:15:13;3.30;;;2.78;;
13040;SDS011;6587;42.728;23.288;2023-05-07T13:17:41;5.47;;;2.90;;
13040;SDS011;6587;42.728;23.288;2023-05-07T13:20:08;4.85;;;3.30;;
13040;SDS011;6587;42.728;23.288;2023-05-07T13:22:35;3.30;;;3.00;;
13040;SDS011;6587;42.728;23.288;2023-05-07T13:25:02;3.15;;;2.90;;
13040;SDS011;6587;42.728;23.288;2023-05-07T13:27:28;3.40;;;3.10;;
13040;SDS011;6587;42.728;23.288;2023-05-07T13:29:55;3.47;;;3.00;;
13040;SDS011;6587;42.728;23.288;2023-05-07T13:32:22;3.50;;;3.20;;
13040;SDS011;6587;42.728;23.288;2023-05-07T13:34:50;3.78;;;2.90;;
13040;SDS011;6587;42.728;23.288;2023-05-07T13:37:17;2.83;;;2.50;;
13040;SDS011;6587;42.728;23.288;2023-05-07T13:39:43;4.78;;;3.92;;
13040;SDS011;6587;42.728;23.288;2023-05-07T13:42:10;3.72;;;3.00;;
13040;SDS011;6587;42.728;23.288;2023-05-07T13:44:37;2.95;;;2.72;;
13040;SDS011;6587;42.728;23.288;2023-05-07T13:47:04;4.45;;;2.90;;
13040;SDS011;6587;42.728;23.288;2023-05-07T13:49:31;4.40;;;2.58;;
13040;SDS011;6587;42.728;23.288;2023-05-07T13:51:58;5.20;;;2.78;;
13040;SDS011;6587;42.728;23.288;2023-05-07T13:54:25;4.38;;;3.03;;
13040;SDS011;6587;42.728;23.288;2023-05-07T13:56:52;3.85;;;3.10;;
13040;SDS011;6587;42.728;23.288;2023-05-07T13:59:18;3.58;;;2.70;;
13040;SDS011;6587;42.728;23.288;2023-05-07T14:01:45;3.53;;;2.75;;
13040;SDS011;6587;42.728;23.288;2023-05-07T14:04:12;2.67;;;2.35;;
13040;SDS011;6587;42.728;23.288;2023-05-07T14:06:39;3.28;;;2.67;;
13040;SDS011;6587;42.728;23.288;2023-05-07T14:09:06;4.57;;;3.17;;
13040;SDS011;6587;42.728;23.288;2023-05-07T14:11:33;4.45;;;2.63;;
13040;SDS011;6587;42.728;23.288;2023-05-07T14:14:00;3.38;;;2.90;;
13040;SDS011;6587;42.728;23.288;2023-05-07T14:16:26;3.42;;;2.85;;
13040;SDS011;6587;42.728;23.288;2023-05-07T14:18:53;3.72;;;2.83;;
13040;SDS011;6587;42.728;23.288;2023-05-07T14:21:19;2.83;;;2.60;;
13040;SDS011;6587;42.728;23.288;2023-05-07T14:23:46;4.60;;;2.88;;
13040;SDS011;6587;42.728;23.288;2023-05-07T14:26:14;3.22;;;2.70;;
13040;SDS011;6587;42.728;23.288;2023-05-07T14:28:41;6.18;;;3.13;;
13040;SDS011;6587;42.728;23.288;2023-05-07T14:31:11;4.25;;;2.88;;
13040;SDS011;6587;42.728;23.288;2023-05-07T14:33:37;3.20;;;2.90;;
13040;SDS011;6587;42.728;23.288;2023-05-07T14:36:04;3.53;;;3.05;;
13040;SDS011;6587;42.728;23.288;2023-05-07T14:38:31;3.65;;;2.67;;
13040;SDS011;6587;42.728;23.288;2023-05-07T14:40:59;3.92;;;3.20;;
13040;SDS011;6587;42.728;23.288;2023-05-07T14:43:27;3.08;;;2.78;;
13040;SDS011;6587;42.728;23.288;2023-05-07T14:45:54;3.55;;;3.22;;